Holy Trinity, Alabama
Current Conditions -  °F | °C
As of 12:58 PM on Thursday 18 Dec 2014 (Local Time) from KLSF Reporting Station
Clear Clear  
Wind Chill: 62°   Ceiling: Unl
Heat Index: 62°   Visibility: 10mi
Dew Point: 34°   Wind: 6mph
Humidity: 35%   Direction: 300°WNW
Pressure: 30.11"   Gusts: NA
Location:  32.22°N, 85.01°W
Report Text: KLSF 181858Z AUTO 30005KT 10SM CLR 17/01 A3011 RMK AO2 CIG 110 RWY15 SLP199 T01660009
Loading
Personal Weather Stations






























Interactive Weather Map New forecast layout! Learn more

10-Day Weather Forecast

Advertisements
Track Severe Weather on mobile